createdAt,value
2023-04-18T00:02:04.182Z,99208.84
2023-04-18T00:04:34.072Z,99207.06
2023-04-18T00:07:01.698Z,99219.34
2023-04-18T00:09:28.626Z,99210.78
2023-04-18T00:11:55.894Z,99207.25
2023-04-18T00:14:23.190Z,99212.53
2023-04-18T00:16:51.723Z,99204.56
2023-04-18T00:19:19.983Z,99201.09
2023-04-18T00:21:47.158Z,99204.53
2023-04-18T00:24:14.206Z,99204.44
2023-04-18T00:26:41.742Z,99210.59
2023-04-18T00:29:08.713Z,99197.31
2023-04-18T00:31:35.959Z,99198.22
2023-04-18T00:34:02.999Z,99204.53
2023-04-18T00:36:30.137Z,99194.06
2023-04-18T00:38:57.064Z,99194.13
2023-04-18T00:41:27.661Z,99186.34
2023-04-18T00:43:55.186Z,99192.56
2023-04-18T00:46:22.408Z,99194.34
2023-04-18T00:48:49.907Z,99190.72
2023-04-18T00:51:17.528Z,99194.44
2023-04-18T00:53:45.601Z,99187.38
2023-04-18T00:56:13.304Z,99186.47
2023-04-18T00:58:41.061Z,99182.91
2023-04-18T01:01:09.757Z,99184.84
2023-04-18T01:03:37.584Z,99184.84
2023-04-18T01:06:05.280Z,99182.34
2023-04-18T01:08:32.536Z,99184.00
2023-04-18T01:10:59.727Z,99180.38
2023-04-18T01:13:26.702Z,99176.75
2023-04-18T01:15:55.781Z,99179.28
2023-04-18T01:18:23.029Z,99172.28
2023-04-18T01:20:53.227Z,99166.22
2023-04-18T01:23:21.436Z,99172.66
2023-04-18T01:25:52.016Z,99176.03
2023-04-18T01:28:23.669Z,99170.69
2023-04-18T01:30:51.116Z,99172.47
2023-04-18T01:33:18.150Z,99170.78
2023-04-18T01:35:45.388Z,99173.41
2023-04-18T01:38:12.558Z,99173.41
2023-04-18T01:40:39.980Z,99175.22
2023-04-18T01:43:07.189Z,99180.47
2023-04-18T01:45:34.452Z,99174.13
2023-04-18T01:48:01.504Z,99169.97
2023-04-18T01:50:28.798Z,99173.50
2023-04-18T01:52:55.837Z,99175.19
2023-04-18T01:55:23.209Z,99166.31
2023-04-18T01:57:50.969Z,99168.94
2023-04-18T02:00:20.353Z,99168.84
2023-04-18T02:02:47.512Z,99165.28
2023-04-18T02:05:15.019Z,99166.13
2023-04-18T02:07:42.805Z,99174.06
2023-04-18T02:10:11.453Z,99167.06
2023-04-18T02:12:38.926Z,99168.09
2023-04-18T02:15:07.041Z,99168.94
2023-04-18T02:17:36.015Z,99163.69
2023-04-18T02:20:03.669Z,99177.56
2023-04-18T02:22:30.834Z,99173.16
2023-04-18T02:24:58.057Z,99177.00
2023-04-18T02:27:25.062Z,99181.34
2023-04-18T02:29:52.242Z,99171.66
2023-04-18T02:32:19.396Z,99176.03
2023-04-18T02:34:46.909Z,99175.41
2023-04-18T02:37:13.807Z,99184.13
2023-04-18T02:39:41.158Z,99184.13
2023-04-18T02:42:08.172Z,99184.97
2023-04-18T02:44:35.462Z,99186.88
2023-04-18T02:47:02.443Z,99179.78
2023-04-18T02:49:29.738Z,99185.16
2023-04-18T02:51:57.448Z,99189.34
2023-04-18T02:54:26.824Z,99191.00
2023-04-18T02:56:54.869Z,99186.56
2023-04-18T02:59:22.047Z,99183.84
2023-04-18T03:01:49.119Z,99175.22
2023-04-18T03:04:16.649Z,99184.75
2023-04-18T03:06:43.724Z,99187.47
2023-04-18T03:09:11.159Z,99193.63
2023-04-18T03:11:38.248Z,99188.50
2023-04-18T03:14:05.475Z,99196.31
2023-04-18T03:16:32.602Z,99186.56
2023-04-18T03:18:59.890Z,99187.47
2023-04-18T03:21:27.577Z,99190.06
2023-04-18T03:23:54.753Z,99183.09
2023-04-18T03:26:24.364Z,99189.16
2023-04-18T03:28:51.661Z,99186.53
2023-04-18T03:31:18.739Z,99191.75
2023-04-18T03:33:47.011Z,99186.38
2023-04-18T03:36:18.122Z,99187.47
2023-04-18T03:38:45.617Z,99186.47
2023-04-18T03:41:12.696Z,99185.81
2023-04-18T03:43:39.901Z,99183.03
2023-04-18T03:46:06.881Z,99191.72
2023-04-18T03:48:37.374Z,99186.44
2023-04-18T03:51:06.507Z,99193.31
2023-04-18T03:53:33.689Z,99192.50
2023-04-18T03:56:00.620Z,99191.63
2023-04-18T03:58:27.825Z,99192.50
2023-04-18T04:00:54.787Z,99200.50
2023-04-18T04:03:22.235Z,99194.38
2023-04-18T04:05:49.477Z,99195.94
2023-04-18T04:08:16.664Z,99203.00
2023-04-18T04:10:44.622Z,99209.22
2023-04-18T04:13:11.743Z,99204.84
2023-04-18T04:15:39.296Z,99210.09
2023-04-18T04:18:07.121Z,99212.81
2023-04-18T04:20:34.169Z,99218.00
2023-04-18T04:23:07.192Z,99217.16
2023-04-18T04:25:34.709Z,99220.72
2023-04-18T04:28:03.033Z,99215.41
2023-04-18T04:30:30.055Z,99218.09
2023-04-18T04:32:57.274Z,99213.78
2023-04-18T04:35:24.338Z,99217.25
2023-04-18T04:37:52.816Z,99218.09
2023-04-18T04:40:19.991Z,99222.59
2023-04-18T04:42:49.234Z,99215.47
2023-04-18T04:45:16.351Z,99216.34
2023-04-18T04:47:43.832Z,99220.81
2023-04-18T04:50:16.002Z,99215.50
2023-04-18T04:52:43.825Z,99221.53
2023-04-18T04:55:11.307Z,99226.03
2023-04-18T04:57:38.748Z,99227.69
2023-04-18T05:00:07.836Z,99223.28
2023-04-18T05:02:35.416Z,99225.03
2023-04-18T05:05:02.647Z,99219.94
2023-04-18T05:07:30.932Z,99229.56
2023-04-18T05:09:57.898Z,99229.53
2023-04-18T05:12:25.161Z,99232.25
2023-04-18T05:14:52.082Z,99226.94
2023-04-18T05:17:19.313Z,99232.06
2023-04-18T05:19:46.390Z,99232.06
2023-04-18T05:22:13.733Z,99238.25
2023-04-18T05:24:41.258Z,99233.78
2023-04-18T05:27:08.807Z,99233.84
2023-04-18T05:29:35.834Z,99235.78
2023-04-18T05:32:03.473Z,99237.44
2023-04-18T05:34:30.876Z,99236.41
2023-04-18T05:36:58.272Z,99234.56
2023-04-18T05:39:25.275Z,99237.97
2023-04-18T05:41:53.003Z,99240.50
2023-04-18T05:44:20.359Z,99240.59
2023-04-18T05:46:51.351Z,99244.81
2023-04-18T05:49:19.456Z,99230.69
2023-04-18T05:51:49.810Z,99242.88
2023-04-18T05:54:17.329Z,99240.28
2023-04-18T05:56:45.092Z,99242.94
2023-04-18T05:59:12.249Z,99241.22
2023-04-18T06:01:39.452Z,99234.97
2023-04-18T06:04:07.572Z,99242.13
2023-04-18T06:06:36.235Z,99236.06
2023-04-18T06:09:03.602Z,99230.72
2023-04-18T06:11:33.568Z,99246.59
2023-04-18T06:14:00.560Z,99247.50
2023-04-18T06:16:27.913Z,99249.03
2023-04-18T06:18:55.355Z,99247.16
2023-04-18T06:21:22.515Z,99255.06
2023-04-18T06:23:49.453Z,99254.19
2023-04-18T06:26:17.298Z,99262.00
2023-04-18T06:28:44.315Z,99255.91
2023-04-18T06:31:11.576Z,99254.19
2023-04-18T06:33:38.633Z,99261.00
2023-04-18T06:36:07.241Z,99259.09
2023-04-18T06:38:34.316Z,99259.91
2023-04-18T06:41:01.547Z,99264.28
2023-04-18T06:43:29.472Z,99269.34
2023-04-18T06:45:57.081Z,99262.31
2023-04-18T06:48:24.120Z,99270.06
2023-04-18T06:50:51.560Z,99279.56
2023-04-18T06:53:18.529Z,99271.84
2023-04-18T06:55:45.864Z,99276.34
2023-04-18T06:58:16.157Z,99275.69
2023-04-18T07:00:43.988Z,99275.56
2023-04-18T07:03:13.603Z,99272.13
2023-04-18T07:05:41.019Z,99274.00
2023-04-18T07:08:08.304Z,99275.00
2023-04-18T07:10:35.936Z,99282.00
2023-04-18T07:13:03.429Z,99275.84
2023-04-18T07:15:31.200Z,99281.03
2023-04-18T07:17:58.800Z,99282.81
2023-04-18T07:20:27.116Z,99281.13
2023-04-18T07:22:54.931Z,99281.91
2023-04-18T07:25:22.688Z,99275.78
2023-04-18T07:27:50.759Z,99284.53
2023-04-18T07:30:18.759Z,99280.09
2023-04-18T07:32:47.267Z,99281.84
2023-04-18T07:35:15.400Z,99282.81
2023-04-18T07:37:42.575Z,99279.19
2023-04-18T07:40:10.806Z,99280.81
2023-04-18T07:42:38.384Z,99284.41
2023-04-18T07:45:06.805Z,99285.16
2023-04-18T07:47:34.375Z,99278.00
2023-04-18T07:50:04.226Z,99282.44
2023-04-18T07:52:32.819Z,99278.69
2023-04-18T07:55:00.150Z,99285.50
2023-04-18T07:57:27.203Z,99278.16
2023-04-18T07:59:54.932Z,99286.06
2023-04-18T08:02:22.555Z,99287.63
2023-04-18T08:04:52.410Z,99284.97
2023-04-18T08:07:19.599Z,99294.69
2023-04-18T08:09:50.858Z,99284.00
2023-04-18T08:12:17.877Z,99280.56
2023-04-18T08:14:45.201Z,99280.50
2023-04-18T08:17:12.159Z,99287.34
2023-04-18T08:19:39.421Z,99284.56
2023-04-18T08:22:11.011Z,99287.88
2023-04-18T08:24:46.447Z,99285.09
2023-04-18T08:27:18.282Z,99284.06
2023-04-18T08:29:45.717Z,99282.97
2023-04-18T08:32:12.715Z,99287.31
2023-04-18T08:34:40.293Z,99292.38
2023-04-18T08:37:07.391Z,99293.13
2023-04-18T08:39:35.438Z,99298.16
2023-04-18T08:42:06.416Z,99301.69
2023-04-18T08:44:34.367Z,99297.25
2023-04-18T08:47:01.930Z,99301.50
2023-04-18T08:49:33.721Z,99304.13
2023-04-18T08:52:02.768Z,99307.66
2023-04-18T08:54:31.560Z,99310.19
2023-04-18T08:57:10.831Z,99318.19
2023-04-18T08:59:38.760Z,99309.22
2023-04-18T09:02:10.169Z,99306.53
2023-04-18T09:04:49.199Z,99308.19
2023-04-18T09:07:18.108Z,99299.25
2023-04-18T09:09:51.914Z,99306.16
2023-04-18T09:12:28.356Z,99303.38
2023-04-18T09:15:16.856Z,99296.25
2023-04-18T09:17:51.014Z,99295.44
2023-04-18T09:20:41.150Z,99298.66
2023-04-18T09:23:16.245Z,99300.00
2023-04-18T09:25:46.388Z,99302.47
2023-04-18T09:28:29.269Z,99309.50
2023-04-18T09:31:04.486Z,99303.91
2023-04-18T09:33:37.050Z,99304.63
2023-04-18T09:36:23.965Z,99310.66
2023-04-18T09:38:56.306Z,99307.16
2023-04-18T09:41:24.610Z,99304.44
2023-04-18T09:44:15.047Z,99311.31
2023-04-18T09:46:47.201Z,99308.56
2023-04-18T09:49:16.898Z,99306.38
2023-04-18T09:51:46.247Z,99310.63
2023-04-18T09:54:18.530Z,99305.94
2023-04-18T09:56:47.989Z,99304.72
2023-04-18T09:59:38.386Z,99297.44
2023-04-18T10:02:16.661Z,99286.13
2023-04-18T10:04:47.648Z,99300.97
2023-04-18T10:07:17.470Z,99297.22
2023-04-18T10:09:50.118Z,99298.88
2023-04-18T10:12:18.623Z,99301.03
2023-04-18T10:14:46.362Z,99304.78
2023-04-18T10:17:15.401Z,99304.56
2023-04-18T10:19:44.353Z,99294.25
2023-04-18T10:22:12.262Z,99285.72
2023-04-18T10:24:50.570Z,99289.94
2023-04-18T10:27:19.714Z,99289.22
2023-04-18T10:29:52.426Z,99295.09
2023-04-18T10:32:23.533Z,99296.38
2023-04-18T10:34:53.490Z,99297.75
2023-04-18T10:37:21.051Z,99288.69
2023-04-18T10:39:54.118Z,99283.78
2023-04-18T10:42:46.958Z,99284.09
2023-04-18T10:45:36.593Z,99286.84
2023-04-18T10:48:26.032Z,99281.94
2023-04-18T10:51:18.363Z,99284.38
2023-04-18T10:54:09.841Z,99288.97
2023-04-18T10:56:37.279Z,99282.88
2023-04-18T10:59:04.674Z,99281.69
2023-04-18T11:01:37.047Z,99283.19
2023-04-18T11:04:14.141Z,99279.69
2023-04-18T11:06:49.604Z,99276.56
2023-04-18T11:09:16.888Z,99282.25
2023-04-18T11:11:44.457Z,99281.38
2023-04-18T11:14:13.519Z,99273.06
2023-04-18T11:16:40.928Z,99274.94
2023-04-18T11:19:23.826Z,99281.16
2023-04-18T11:21:51.785Z,99281.66
2023-04-18T11:24:25.247Z,99281.38
2023-04-18T11:26:56.068Z,99274.25
2023-04-18T11:29:23.799Z,99273.00
2023-04-18T11:31:56.874Z,99273.16
2023-04-18T11:34:33.394Z,99275.09
2023-04-18T11:37:00.443Z,99274.97
2023-04-18T11:39:28.191Z,99273.78
2023-04-18T11:41:57.293Z,99281.22
2023-04-18T11:44:26.170Z,99272.34
2023-04-18T11:46:53.895Z,99275.78
2023-04-18T11:49:32.463Z,99277.56
2023-04-18T11:52:01.291Z,99269.47
2023-04-18T11:54:45.790Z,99271.88
2023-04-18T11:57:22.078Z,99272.66
2023-04-18T11:59:59.107Z,99280.47
2023-04-18T12:02:39.166Z,99274.41
2023-04-18T12:05:07.293Z,99267.56
2023-04-18T12:07:48.370Z,99274.84
2023-04-18T12:10:29.931Z,99268.94
2023-04-18T12:13:00.262Z,99265.88
2023-04-18T12:15:29.964Z,99271.88
2023-04-18T12:18:06.003Z,99280.72
2023-04-18T12:20:51.762Z,99273.81
2023-04-18T12:23:40.130Z,99270.16
2023-04-18T12:26:21.243Z,99267.13
2023-04-18T12:28:51.478Z,99268.69
2023-04-18T12:31:19.004Z,99269.16
2023-04-18T12:33:46.029Z,99278.09
2023-04-18T12:36:13.307Z,99274.41
2023-04-18T12:38:40.587Z,99272.66
2023-04-18T12:41:08.261Z,99268.44
2023-04-18T12:43:35.312Z,99271.16
2023-04-18T12:46:02.766Z,99279.16
2023-04-18T12:48:29.807Z,99275.19
2023-04-18T12:50:57.264Z,99279.47
2023-04-18T12:53:24.303Z,99281.34
2023-04-18T12:55:51.991Z,99276.38
2023-04-18T12:58:20.619Z,99294.03
2023-04-18T13:00:47.928Z,99289.03
2023-04-18T13:03:15.400Z,99283.44
2023-04-18T13:05:43.044Z,99292.22
2023-04-18T13:08:16.938Z,99286.97
2023-04-18T13:10:47.668Z,99287.09
2023-04-18T13:13:15.031Z,99282.59
2023-04-18T13:15:42.631Z,99282.84
2023-04-18T13:18:09.895Z,99282.94
2023-04-18T13:20:37.749Z,99281.28
2023-04-18T13:23:05.240Z,99280.28
2023-04-18T13:25:32.664Z,99278.09
2023-04-18T13:28:01.043Z,99283.38
2023-04-18T13:30:28.797Z,99277.91
2023-04-18T13:32:56.925Z,99280.47
2023-04-18T13:35:24.488Z,99280.13
2023-04-18T13:37:51.927Z,99279.16
2023-04-18T13:40:19.464Z,99278.97
2023-04-18T13:42:46.627Z,99282.31
2023-04-18T13:45:14.067Z,99276.75
2023-04-18T13:47:41.301Z,99285.00
2023-04-18T13:50:09.429Z,99284.03
2023-04-18T13:52:36.564Z,99279.69
2023-04-18T13:55:04.450Z,99271.63
2023-04-18T13:57:34.835Z,99279.22
2023-04-18T14:00:06.567Z,99280.13
2023-04-18T14:02:33.655Z,99274.84
2023-04-18T14:05:01.723Z,99274.00
2023-04-18T14:07:28.914Z,99274.50
2023-04-18T14:09:56.198Z,99275.16
2023-04-18T14:12:23.399Z,99267.00
2023-04-18T14:14:51.226Z,99271.38
2023-04-18T14:17:18.328Z,99277.28
2023-04-18T14:19:45.783Z,99276.50
2023-04-18T14:22:12.774Z,99276.63
2023-04-18T14:24:40.092Z,99274.56
2023-04-18T14:27:07.200Z,99284.31
2023-04-18T14:29:34.728Z,99276.03
2023-04-18T14:32:01.810Z,99270.91
2023-04-18T14:34:31.069Z,99278.41
2023-04-18T14:36:58.945Z,99280.56
2023-04-18T14:39:26.392Z,99273.63
2023-04-18T14:41:54.838Z,99280.66
2023-04-18T14:44:22.198Z,99274.78
2023-04-18T14:46:49.240Z,99278.63
2023-04-18T14:49:16.808Z,99277.28
2023-04-18T14:51:44.569Z,99270.41
2023-04-18T14:54:12.055Z,99273.78
2023-04-18T14:56:39.545Z,99264.00
2023-04-18T14:59:06.970Z,99266.94
2023-04-18T15:01:33.992Z,99265.72
2023-04-18T15:04:03.581Z,99269.19
2023-04-18T15:06:30.901Z,99267.03
2023-04-18T15:08:58.326Z,99273.16
2023-04-18T15:11:27.120Z,99268.88
2023-04-18T15:13:54.768Z,99265.72
2023-04-18T15:16:21.940Z,99262.03
2023-04-18T15:18:49.321Z,99267.16
2023-04-18T15:21:16.321Z,99262.66
2023-04-18T15:23:44.637Z,99271.53
2023-04-18T15:26:11.582Z,99271.47
2023-04-18T15:28:39.180Z,99268.09
2023-04-18T15:31:07.446Z,99266.88
2023-04-18T15:33:35.000Z,99265.00
2023-04-18T15:36:01.970Z,99263.25
2023-04-18T15:38:32.976Z,99268.75
2023-04-18T15:41:00.615Z,99277.34
2023-04-18T15:43:31.066Z,99270.38
2023-04-18T15:45:58.389Z,99270.31
2023-04-18T15:48:25.661Z,99274.06
2023-04-18T15:50:52.875Z,99268.31
2023-04-18T15:53:20.120Z,99273.19
2023-04-18T15:55:47.238Z,99273.06
2023-04-18T15:58:14.481Z,99273.69
2023-04-18T16:00:41.771Z,99278.13
2023-04-18T16:03:10.469Z,99277.59
2023-04-18T16:05:37.789Z,99283.59
2023-04-18T16:08:05.073Z,99280.97
2023-04-18T16:10:32.065Z,99285.78
2023-04-18T16:12:59.587Z,99294.13
2023-04-18T16:15:27.278Z,99291.16
2023-04-18T16:17:54.907Z,99293.97
2023-04-18T16:20:21.935Z,99293.31
2023-04-18T16:22:49.592Z,99291.63
2023-04-18T16:25:16.666Z,99292.59
2023-04-18T16:27:43.962Z,99285.22
2023-04-18T16:30:12.126Z,99289.19
2023-04-18T16:32:39.735Z,99292.88
2023-04-18T16:35:13.502Z,99299.34
2023-04-18T16:37:41.386Z,99296.63
2023-04-18T16:40:10.256Z,99288.78
2023-04-18T16:42:37.574Z,99290.78
2023-04-18T16:45:05.145Z,99296.16
2023-04-18T16:47:32.561Z,99301.72
2023-04-18T16:49:59.533Z,99298.34
2023-04-18T16:52:27.579Z,99289.63
2023-04-18T16:54:54.696Z,99298.72
2023-04-18T16:57:21.945Z,99303.38
2023-04-18T16:59:49.642Z,99301.59
2023-04-18T17:02:20.413Z,99308.09
2023-04-18T17:04:48.376Z,99311.06
2023-04-18T17:07:15.859Z,99316.63
2023-04-18T17:09:43.061Z,99313.44
2023-04-18T17:12:10.600Z,99322.19
2023-04-18T17:14:37.749Z,99320.31
2023-04-18T17:17:08.574Z,99323.38
2023-04-18T17:19:35.539Z,99330.84
2023-04-18T17:22:03.820Z,99333.78
2023-04-18T17:24:30.672Z,99340.03
2023-04-18T17:26:58.299Z,99338.75
2023-04-18T17:29:26.570Z,99347.75
2023-04-18T17:31:54.087Z,99351.69
2023-04-18T17:34:21.418Z,99354.34
2023-04-18T17:36:49.582Z,99350.84
2023-04-18T17:39:17.706Z,99350.84
2023-04-18T17:41:47.564Z,99351.97
2023-04-18T17:44:15.560Z,99345.84
2023-04-18T17:46:48.859Z,99352.94
2023-04-18T17:49:35.608Z,99351.28
2023-04-18T17:52:04.592Z,99353.00
2023-04-18T17:55:03.920Z,99351.47
2023-04-18T17:58:00.536Z,99352.47
2023-04-18T18:00:28.328Z,99356.06
2023-04-18T18:02:55.892Z,99359.69
2023-04-18T18:05:23.370Z,99364.28
2023-04-18T18:07:52.584Z,99366.03
2023-04-18T18:10:24.523Z,99367.19
2023-04-18T18:12:52.408Z,99368.88
2023-04-18T18:15:21.586Z,99375.84
2023-04-18T18:17:53.511Z,99371.47
2023-04-18T18:20:21.331Z,99383.72
2023-04-18T18:22:50.635Z,99380.22
2023-04-18T18:25:24.820Z,99376.94
2023-04-18T18:27:58.780Z,99376.19
2023-04-18T18:30:26.226Z,99374.66
2023-04-18T18:33:25.407Z,99384.38
2023-04-18T18:35:54.610Z,99386.03
2023-04-18T18:38:22.457Z,99382.53
2023-04-18T18:44:00.062Z,99384.53
2023-04-18T18:46:59.054Z,99388.22
2023-04-18T18:54:26.958Z,99393.06
2023-04-18T18:56:53.987Z,99390.31
2023-04-18T18:59:21.316Z,99377.88
2023-04-18T19:02:20.368Z,99389.31
2023-04-18T19:09:21.349Z,99390.00
2023-04-18T19:11:48.684Z,99394.59
2023-04-18T19:14:16.151Z,99394.66
2023-04-18T19:16:43.593Z,99392.91
2023-04-18T19:19:11.603Z,99398.22
2023-04-18T19:21:45.723Z,99399.19
2023-04-18T19:24:13.554Z,99399.09
2023-04-18T19:26:41.930Z,99390.25
2023-04-18T19:29:11.570Z,99393.00
2023-04-18T19:31:38.929Z,99393.16
2023-04-18T19:34:05.952Z,99390.63
2023-04-18T19:36:33.303Z,99393.31
2023-04-18T19:39:00.540Z,99390.81
2023-04-18T19:41:28.038Z,99391.72
2023-04-18T19:43:55.018Z,99382.34
2023-04-18T19:46:22.220Z,99399.16
2023-04-18T19:48:49.271Z,99387.84
2023-04-18T19:51:16.574Z,99399.16
2023-04-18T19:53:43.521Z,99392.22
2023-04-18T19:56:12.498Z,99392.25
2023-04-18T19:58:45.282Z,99393.22
2023-04-18T20:01:14.297Z,99393.13
2023-04-18T20:03:41.919Z,99386.88
2023-04-18T20:06:11.149Z,99399.19
2023-04-18T20:08:41.615Z,99378.91
2023-04-18T20:11:11.543Z,99386.88
2023-04-18T20:13:38.595Z,99390.53
2023-04-18T20:16:07.539Z,99384.59
2023-04-18T20:18:37.946Z,99393.56
2023-04-18T20:21:07.395Z,99391.91
2023-04-18T20:23:36.124Z,99382.13
2023-04-18T20:26:06.306Z,99381.22
2023-04-18T20:28:33.768Z,99383.94
2023-04-18T20:31:02.556Z,99381.31
2023-04-18T20:33:29.594Z,99380.34
2023-04-18T20:35:58.809Z,99383.94
2023-04-18T20:38:29.587Z,99381.53
2023-04-18T20:40:58.883Z,99383.25
2023-04-18T20:43:26.886Z,99379.66
2023-04-18T20:45:54.610Z,99384.88
2023-04-18T20:48:21.776Z,99384.78
2023-04-18T20:50:52.379Z,99381.31
2023-04-18T20:53:21.829Z,99383.03
2023-04-18T20:55:49.266Z,99378.84
2023-04-18T20:58:16.901Z,99384.19
2023-04-18T21:00:45.080Z,99373.50
2023-04-18T21:03:16.862Z,99380.72
2023-04-18T21:05:45.220Z,99375.28
2023-04-18T21:08:12.483Z,99372.75
2023-04-18T21:10:40.024Z,99366.66
2023-04-18T21:13:07.260Z,99364.16
2023-04-18T21:15:35.887Z,99367.75
2023-04-18T21:18:03.103Z,99372.09
2023-04-18T21:20:30.536Z,99365.16
2023-04-18T21:22:59.832Z,99357.22
2023-04-18T21:25:27.068Z,99359.81
2023-04-18T21:27:54.020Z,99355.41
2023-04-18T21:30:21.491Z,99348.31
2023-04-18T21:32:50.992Z,99357.97
2023-04-18T21:35:19.823Z,99347.41
2023-04-18T21:37:48.275Z,99348.31
2023-04-18T21:40:16.047Z,99358.13
2023-04-18T21:42:43.303Z,99349.25
2023-04-18T21:45:11.229Z,99348.41
2023-04-18T21:47:38.566Z,99338.91
2023-04-18T21:50:06.794Z,99339.75
2023-04-18T21:52:33.880Z,99341.50
2023-04-18T21:55:01.106Z,99341.59
2023-04-18T21:57:28.314Z,99344.19
2023-04-18T21:59:57.774Z,99340.63
2023-04-18T22:02:26.926Z,99339.59
2023-04-18T22:04:54.266Z,99333.38
2023-04-18T22:07:21.544Z,99333.41
2023-04-18T22:09:48.806Z,99334.16
2023-04-18T22:12:15.804Z,99335.91
2023-04-18T22:14:48.219Z,99329.84
2023-04-18T22:17:17.974Z,99327.09
2023-04-18T22:19:49.520Z,99329.94
2023-04-18T22:22:20.945Z,99330.72
2023-04-18T22:24:51.803Z,99325.44
2023-04-18T22:27:21.748Z,99320.13
2023-04-18T22:29:48.960Z,99318.34
2023-04-18T22:32:15.996Z,99320.13
2023-04-18T22:34:45.139Z,99313.09
2023-04-18T22:37:12.088Z,99315.09
2023-04-18T22:39:39.286Z,99315.03
2023-04-18T22:42:06.226Z,99312.41
2023-04-18T22:44:33.374Z,99308.16
2023-04-18T22:47:00.251Z,99315.25
2023-04-18T22:49:27.668Z,99306.44
2023-04-18T22:51:54.646Z,99302.88
2023-04-18T22:54:21.996Z,99302.69
2023-04-18T22:56:50.278Z,99305.38
2023-04-18T22:59:18.032Z,99308.84
2023-04-18T23:01:45.082Z,99302.69
2023-04-18T23:04:12.448Z,99305.19
2023-04-18T23:06:39.579Z,99299.00
2023-04-18T23:09:11.037Z,99309.41
2023-04-18T23:11:38.080Z,99303.28
2023-04-18T23:14:06.369Z,99300.53
2023-04-18T23:16:33.237Z,99297.25
2023-04-18T23:19:00.445Z,99292.88
2023-04-18T23:21:28.124Z,99286.75
2023-04-18T23:23:55.427Z,99285.84
2023-04-18T23:26:23.979Z,99288.38
2023-04-18T23:28:52.178Z,99277.00
2023-04-18T23:31:19.673Z,99283.31
2023-04-18T23:33:47.077Z,99279.94
2023-04-18T23:36:14.097Z,99278.13
2023-04-18T23:38:41.349Z,99274.59
2023-04-18T23:41:08.636Z,99277.19
2023-04-18T23:43:35.844Z,99272.75
2023-04-18T23:46:02.865Z,99260.50
2023-04-18T23:48:30.050Z,99262.13
2023-04-18T23:50:57.013Z,99263.84
2023-04-18T23:53:24.979Z,99259.44
2023-04-18T23:55:53.616Z,99255.81
2023-04-18T23:58:26.999Z,99249.59
